createdAt,value
2019-02-25T00:00:14.333Z,94.60
2019-02-25T00:02:43.025Z,95.40
2019-02-25T00:05:11.769Z,94.30
2019-02-25T00:07:40.402Z,93.80
2019-02-25T00:10:10.016Z,94.60
2019-02-25T00:12:38.642Z,94.20
2019-02-25T00:15:09.446Z,94.40
2019-02-25T00:17:40.241Z,94.80
2019-02-25T00:20:12.784Z,95.30
2019-02-25T00:22:41.522Z,94.90
2019-02-25T00:25:12.394Z,94.60
2019-02-25T00:27:41.117Z,95.00
2019-02-25T00:30:15.103Z,95.40
2019-02-25T00:32:43.937Z,95.70
2019-02-25T00:35:12.642Z,95.30
2019-02-25T00:37:41.317Z,95.10
2019-02-25T00:40:12.576Z,95.50
2019-02-25T00:42:41.310Z,95.20
2019-02-25T00:45:15.409Z,94.60
2019-02-25T00:47:44.146Z,95.30
2019-02-25T00:50:15.610Z,94.80
2019-02-25T00:52:46.462Z,95.30
2019-02-25T00:55:15.262Z,95.40
2019-02-25T00:57:43.998Z,95.10
2019-02-25T01:00:20.551Z,95.20
2019-02-25T01:02:49.767Z,95.70
2019-02-25T01:05:18.578Z,95.80
2019-02-25T01:07:47.268Z,95.70
2019-02-25T01:10:17.873Z,95.80
2019-02-25T01:12:46.792Z,96.10
2019-02-25T01:15:16.585Z,95.80
2019-02-25T01:17:45.318Z,95.80
2019-02-25T01:20:16.491Z,96.10
2019-02-25T01:22:45.215Z,96.40
2019-02-25T01:25:16.381Z,96.50
2019-02-25T01:27:45.109Z,96.10
2019-02-25T01:30:16.012Z,96.30
2019-02-25T01:32:44.646Z,96.60
2019-02-25T01:35:14.088Z,96.80
2019-02-25T01:37:42.882Z,96.80
2019-02-25T01:40:12.917Z,96.40
2019-02-25T01:42:41.625Z,96.30
2019-02-25T01:45:16.261Z,96.90
2019-02-25T01:47:45.096Z,97.20
2019-02-25T01:50:13.929Z,96.90
2019-02-25T01:52:42.594Z,97.00
2019-02-25T01:55:15.337Z,97.00
2019-02-25T01:57:44.906Z,97.30
2019-02-25T02:00:15.620Z,97.50
2019-02-25T02:02:44.198Z,97.60
2019-02-25T02:05:13.005Z,97.50
2019-02-25T02:07:41.666Z,97.60
2019-02-25T02:10:12.835Z,98.10
2019-02-25T02:12:41.565Z,97.80
2019-02-25T02:15:18.450Z,97.50
2019-02-25T02:17:47.195Z,97.20
2019-02-25T02:20:17.091Z,97.50
2019-02-25T02:22:45.827Z,98.00
2019-02-25T02:25:14.934Z,98.00
2019-02-25T02:27:43.608Z,98.40
2019-02-25T02:30:15.278Z,98.40
2019-02-25T02:32:43.941Z,97.90
2019-02-25T02:35:12.576Z,97.90
2019-02-25T02:37:41.230Z,98.20
2019-02-25T02:40:13.629Z,98.60
2019-02-25T02:42:51.329Z,98.70
2019-02-25T02:45:55.011Z,98.60
2019-02-25T02:48:37.454Z,98.50
2019-02-25T02:51:06.089Z,98.30
2019-02-25T02:53:34.665Z,98.70
2019-02-25T02:56:03.264Z,98.70
2019-02-25T02:58:31.817Z,98.60
2019-02-25T03:01:00.416Z,99.00
2019-02-25T03:03:28.982Z,99.20
2019-02-25T03:05:57.704Z,99.00
2019-02-25T03:08:26.342Z,99.30
2019-02-25T03:10:54.967Z,99.00
2019-02-25T03:13:23.626Z,99.40
2019-02-25T03:15:52.184Z,99.40
2019-02-25T03:18:20.781Z,99.30
2019-02-25T03:20:49.338Z,98.50
2019-02-25T03:23:17.925Z,98.80
2019-02-25T03:25:46.558Z,98.70
2019-02-25T03:28:15.214Z,98.80
2019-02-25T03:30:43.793Z,98.70
2019-02-25T03:33:12.484Z,98.50
2019-02-25T03:35:41.093Z,98.40
2019-02-25T03:38:09.654Z,98.40
2019-02-25T03:40:38.316Z,98.60
2019-02-25T03:43:06.954Z,98.90
2019-02-25T03:45:35.618Z,99.50
2019-02-25T03:48:04.322Z,99.10
2019-02-25T03:50:32.994Z,99.40
2019-02-25T03:53:01.630Z,99.60
2019-02-25T03:55:30.291Z,99.20
2019-02-25T03:57:58.924Z,99.70
2019-02-25T04:00:27.623Z,99.60
2019-02-25T04:02:56.460Z,99.70
2019-02-25T04:05:25.086Z,99.90
2019-02-25T04:07:53.821Z,99.90
2019-02-25T04:10:41.766Z,99.90
2019-02-25T04:13:22.690Z,99.90
2019-02-25T04:15:52.240Z,99.90
2019-02-25T04:18:20.957Z,99.90
2019-02-25T04:20:49.534Z,99.50
2019-02-25T04:23:18.101Z,99.50
2019-02-25T04:25:46.670Z,99.90
2019-02-25T04:28:15.278Z,99.90
2019-02-25T04:30:43.990Z,99.90
2019-02-25T04:33:12.587Z,99.90
2019-02-25T04:35:41.155Z,99.90
2019-02-25T04:38:09.746Z,99.90
2019-02-25T04:40:38.378Z,99.90
2019-02-25T04:43:07.042Z,99.90
2019-02-25T04:45:35.677Z,99.90
2019-02-25T04:48:04.446Z,99.90
2019-02-25T04:50:33.034Z,99.90
2019-02-25T04:53:01.811Z,99.90
2019-02-25T04:55:30.353Z,99.90
2019-02-25T04:57:59.012Z,99.90
2019-02-25T05:00:27.717Z,99.90
2019-02-25T05:02:56.379Z,99.90
2019-02-25T05:05:25.013Z,99.90
2019-02-25T05:07:53.660Z,99.90
2019-02-25T05:10:22.322Z,99.90
2019-02-25T05:12:58.549Z,99.90
2019-02-25T05:15:28.814Z,99.90
2019-02-25T05:17:57.381Z,99.90
2019-02-25T05:20:25.972Z,99.90
2019-02-25T05:22:54.641Z,99.90
2019-02-25T05:25:23.352Z,99.90
2019-02-25T05:27:51.905Z,99.90
2019-02-25T05:30:39.915Z,99.90
2019-02-25T05:33:08.581Z,99.90
2019-02-25T05:35:37.145Z,99.90
2019-02-25T05:38:05.807Z,99.90
2019-02-25T05:40:34.371Z,99.90
2019-02-25T05:43:03.099Z,99.90
2019-02-25T05:45:31.666Z,99.90
2019-02-25T05:48:00.257Z,99.90
2019-02-25T05:50:28.918Z,99.90
2019-02-25T05:52:57.483Z,99.90
2019-02-25T05:55:26.068Z,99.90
2019-02-25T05:57:54.701Z,99.90
2019-02-25T06:00:28.947Z,99.90
2019-02-25T06:02:57.673Z,99.90
2019-02-25T06:05:26.397Z,99.90
2019-02-25T06:07:54.964Z,99.90
2019-02-25T06:10:23.617Z,99.90
2019-02-25T06:12:52.277Z,99.90
2019-02-25T06:15:21.137Z,99.90
2019-02-25T06:17:49.837Z,99.90
2019-02-25T06:20:18.752Z,99.90
2019-02-25T06:22:47.481Z,99.90
2019-02-25T06:25:17.199Z,99.90
2019-02-25T06:27:46.229Z,99.90
2019-02-25T06:30:19.638Z,99.90
2019-02-25T06:32:48.471Z,99.90
2019-02-25T06:35:17.486Z,99.90
2019-02-25T06:37:47.901Z,99.90
2019-02-25T06:40:21.557Z,99.90
2019-02-25T06:42:50.287Z,99.90
2019-02-25T06:45:27.666Z,99.90
2019-02-25T06:47:56.252Z,99.90
2019-02-25T06:50:24.887Z,99.90
2019-02-25T06:52:53.484Z,99.90
2019-02-25T06:55:22.145Z,99.90
2019-02-25T06:57:50.693Z,99.90
2019-02-25T07:00:21.393Z,99.90
2019-02-25T07:02:50.039Z,99.90
2019-02-25T07:05:23.366Z,99.90
2019-02-25T07:07:53.877Z,99.90
2019-02-25T07:10:24.177Z,99.90
2019-02-25T07:13:00.136Z,99.90
2019-02-25T07:15:30.380Z,99.90
2019-02-25T07:18:06.910Z,99.90
2019-02-25T07:20:52.784Z,99.90
2019-02-25T07:23:39.838Z,99.70
2019-02-25T07:26:27.601Z,99.80
2019-02-25T07:28:58.228Z,99.30
2019-02-25T07:31:31.692Z,99.20
2019-02-25T07:34:08.266Z,99.20
2019-02-25T07:36:50.842Z,98.30
2019-02-25T07:39:26.906Z,98.10
2019-02-25T07:42:00.031Z,98.30
2019-02-25T07:44:39.286Z,98.50
2019-02-25T07:47:15.254Z,98.40
2019-02-25T07:49:48.509Z,97.70
2019-02-25T07:52:34.025Z,97.20
2019-02-25T07:55:04.248Z,95.40
2019-02-25T07:57:46.363Z,92.90
2019-02-25T08:00:26.050Z,89.80
2019-02-25T08:02:56.293Z,83.20
2019-02-25T08:05:32.435Z,76.30
2019-02-25T08:08:05.801Z,70.30
2019-02-25T08:10:48.161Z,64.50
2019-02-25T08:13:27.751Z,60.20
2019-02-25T08:15:58.115Z,54.20
2019-02-25T08:18:43.147Z,54.50
2019-02-25T08:21:19.455Z,51.20
2019-02-25T08:24:04.745Z,48.70
2019-02-25T08:26:47.045Z,46.60
2019-02-25T08:29:33.643Z,44.60
2019-02-25T08:32:19.420Z,41.10
2019-02-25T08:34:49.982Z,38.90
2019-02-25T08:37:34.977Z,36.90
2019-02-25T08:40:26.003Z,35.90
2019-02-25T08:43:04.083Z,35.20
2019-02-25T08:45:34.531Z,36.50
2019-02-25T08:48:10.756Z,38.00
2019-02-25T08:50:39.583Z,38.30
2019-02-25T08:53:11.092Z,38.00
2019-02-25T08:55:39.980Z,39.20
2019-02-25T08:58:09.265Z,37.80
2019-02-25T09:00:37.969Z,38.20
2019-02-25T09:03:06.706Z,37.30
2019-02-25T09:05:35.416Z,36.30
2019-02-25T09:08:04.137Z,35.00
2019-02-25T09:10:32.839Z,33.20
2019-02-25T09:13:01.577Z,31.10
2019-02-25T09:15:32.419Z,30.80
2019-02-25T09:17:59.569Z,29.80
2019-02-25T09:20:28.128Z,29.00
2019-02-25T09:22:56.721Z,28.40
2019-02-25T09:25:25.290Z,28.20
2019-02-25T09:27:53.881Z,26.90
2019-02-25T09:30:22.517Z,27.60
2019-02-25T09:32:51.174Z,27.80
2019-02-25T09:35:19.873Z,26.80
2019-02-25T09:37:48.511Z,26.50
2019-02-25T09:40:18.395Z,27.10
2019-02-25T09:42:47.131Z,27.20
2019-02-25T09:45:16.937Z,27.00
2019-02-25T09:47:45.636Z,25.90
2019-02-25T09:50:21.791Z,26.30
2019-02-25T09:52:50.356Z,25.10
2019-02-25T09:55:19.090Z,23.80
2019-02-25T09:57:47.792Z,24.50
2019-02-25T10:00:21.490Z,24.50
2019-02-25T10:02:50.121Z,25.50
2019-02-25T10:05:18.787Z,23.90
2019-02-25T10:07:47.417Z,23.80
2019-02-25T10:10:17.050Z,24.10
2019-02-25T10:12:45.760Z,22.50
2019-02-25T10:15:16.849Z,22.60
2019-02-25T10:17:45.484Z,23.20
2019-02-25T10:20:14.221Z,23.30
2019-02-25T10:22:42.858Z,22.60
2019-02-25T10:25:12.022Z,22.70
2019-02-25T10:27:40.721Z,22.20
2019-02-25T10:30:14.555Z,21.50
2019-02-25T10:32:43.181Z,21.90
2019-02-25T10:35:14.428Z,20.40
2019-02-25T10:42:43.234Z,20.20
2019-02-25T10:45:22.645Z,18.40
2019-02-25T10:47:56.009Z,18.30
2019-02-25T10:50:21.986Z,17.10
2019-02-25T10:55:30.299Z,19.30
2019-02-25T11:15:29.221Z,18.30
2019-02-25T11:20:27.325Z,18.10
2019-02-25T11:42:49.432Z,17.10
2019-02-25T12:27:44.645Z,17.20
2019-02-25T12:30:18.663Z,16.20
2019-02-25T12:32:47.385Z,17.20
2019-02-25T12:35:16.105Z,16.60
2019-02-25T12:37:44.760Z,17.10
2019-02-25T12:40:15.296Z,18.30
2019-02-25T12:42:44.129Z,17.90
2019-02-25T12:45:14.818Z,18.10
2019-02-25T12:50:14.805Z,18.10
2019-02-25T12:52:43.705Z,18.30
2019-02-25T12:55:14.975Z,17.80
2019-02-25T12:57:43.604Z,18.10
2019-02-25T13:00:21.178Z,18.00
2019-02-25T13:02:49.805Z,18.20
2019-02-25T13:05:23.409Z,18.70
2019-02-25T13:07:52.128Z,17.90
2019-02-25T13:10:21.107Z,17.70
2019-02-25T13:12:51.518Z,18.50
2019-02-25T13:15:21.229Z,19.40
2019-02-25T13:17:49.853Z,18.50
2019-02-25T13:20:18.518Z,18.80
2019-02-25T13:22:47.129Z,18.60
2019-02-25T13:25:24.530Z,19.10
2019-02-25T13:27:54.340Z,19.10
2019-02-25T13:30:23.488Z,18.20
2019-02-25T13:32:52.109Z,18.90
2019-02-25T13:35:20.756Z,19.10
2019-02-25T13:37:49.487Z,19.90
2019-02-25T13:40:21.088Z,19.80
2019-02-25T13:42:50.217Z,20.90
2019-02-25T13:45:23.193Z,20.60
2019-02-25T13:47:51.754Z,20.40
2019-02-25T13:50:20.881Z,20.90
2019-02-25T13:52:49.545Z,22.10
2019-02-25T13:55:24.429Z,21.80
2019-02-25T13:57:52.991Z,21.60
2019-02-25T14:00:23.628Z,22.10
2019-02-25T14:02:52.326Z,22.30
2019-02-25T14:05:21.630Z,22.60
2019-02-25T14:07:50.435Z,22.10
2019-02-25T14:10:19.802Z,22.40
2019-02-25T14:12:48.661Z,22.70
2019-02-25T14:15:19.941Z,23.30
2019-02-25T14:17:48.679Z,23.80
2019-02-25T14:20:22.295Z,24.00
2019-02-25T14:22:51.215Z,23.90
2019-02-25T14:25:27.426Z,23.90
2019-02-25T14:27:56.557Z,23.90
2019-02-25T14:30:32.716Z,24.60
2019-02-25T14:32:59.573Z,26.10
2019-02-25T14:35:29.781Z,26.20
2019-02-25T14:38:06.387Z,26.50
2019-02-25T14:40:32.593Z,27.80
2019-02-25T14:43:03.339Z,28.40
2019-02-25T14:45:34.346Z,28.20
2019-02-25T14:48:05.152Z,28.20
2019-02-25T14:50:32.739Z,29.00
2019-02-25T14:53:05.552Z,29.70
2019-02-25T14:55:42.752Z,30.20
2019-02-25T14:58:12.743Z,30.00
2019-02-25T15:00:41.624Z,30.70
2019-02-25T15:03:10.467Z,30.60
2019-02-25T15:05:39.321Z,30.00
2019-02-25T15:08:07.961Z,30.30
2019-02-25T15:10:38.383Z,31.00
2019-02-25T15:13:08.868Z,31.70
2019-02-25T15:15:39.082Z,32.40
2019-02-25T15:18:07.809Z,32.40
2019-02-25T15:20:36.813Z,33.30
2019-02-25T15:23:07.361Z,34.30
2019-02-25T15:25:40.268Z,35.20
2019-02-25T15:28:09.254Z,36.30
2019-02-25T15:30:37.234Z,37.40
2019-02-25T15:33:06.521Z,37.20
2019-02-25T15:35:37.106Z,38.40
2019-02-25T15:38:06.734Z,39.50
2019-02-25T15:40:35.434Z,40.40
2019-02-25T15:43:17.509Z,41.10
2019-02-25T15:45:46.125Z,41.60
2019-02-25T15:48:20.250Z,42.00
2019-02-25T15:50:53.040Z,41.70
2019-02-25T15:53:22.772Z,41.60
2019-02-25T15:55:51.468Z,42.40
2019-02-25T15:58:20.604Z,43.90
2019-02-25T16:00:49.372Z,44.80
2019-02-25T16:03:20.774Z,46.00
2019-02-25T16:05:52.338Z,46.70
2019-02-25T16:08:21.264Z,47.30
2019-02-25T16:10:51.313Z,47.80
2019-02-25T16:13:20.754Z,48.20
2019-02-25T16:15:49.454Z,48.70
2019-02-25T16:18:18.249Z,49.30
2019-02-25T16:20:46.917Z,50.20
2019-02-25T16:23:16.056Z,49.80
2019-02-25T16:25:46.186Z,50.10
2019-02-25T16:28:17.455Z,50.00
2019-02-25T16:30:46.908Z,50.20
2019-02-25T16:33:16.602Z,51.00
2019-02-25T16:35:46.127Z,51.30
2019-02-25T16:38:15.907Z,52.10
2019-02-25T16:40:44.634Z,52.70
2019-02-25T16:43:13.353Z,53.50
2019-02-25T16:45:47.309Z,54.10
2019-02-25T16:48:19.324Z,54.00
2019-02-25T16:50:49.195Z,54.80
2019-02-25T16:53:19.691Z,54.60
2019-02-25T16:55:49.242Z,54.50
2019-02-25T16:58:18.565Z,55.70
2019-02-25T17:00:48.038Z,56.10
2019-02-25T17:03:16.735Z,57.90
2019-02-25T17:05:47.686Z,58.00
2019-02-25T17:08:17.907Z,57.50
2019-02-25T17:10:46.590Z,58.40
2019-02-25T17:13:16.616Z,59.00
2019-02-25T17:15:53.334Z,58.40
2019-02-25T17:18:22.023Z,58.40
2019-02-25T17:20:50.636Z,59.90
2019-02-25T17:23:19.296Z,60.40
2019-02-25T17:25:47.852Z,61.10
2019-02-25T17:28:19.725Z,62.70
2019-02-25T17:30:47.376Z,62.40
2019-02-25T17:33:17.430Z,61.90
2019-02-25T17:35:47.708Z,63.40
2019-02-25T17:38:18.006Z,63.80
2019-02-25T17:40:46.583Z,63.30
2019-02-25T17:43:15.689Z,65.10
2019-02-25T17:45:45.969Z,65.60
2019-02-25T17:48:16.176Z,65.20
2019-02-25T17:50:45.579Z,67.10
2019-02-25T17:53:14.376Z,69.10
2019-02-25T17:55:43.246Z,68.30
2019-02-25T17:58:13.011Z,70.00
2019-02-25T18:00:45.901Z,69.70
2019-02-25T18:03:15.450Z,69.50
2019-02-25T18:05:44.842Z,70.30
2019-02-25T18:08:15.373Z,69.80
2019-02-25T18:10:45.291Z,71.40
2019-02-25T18:13:14.139Z,71.00
2019-02-25T18:15:44.999Z,70.00
2019-02-25T18:18:15.155Z,70.50
2019-02-25T18:20:44.014Z,71.80
2019-02-25T18:23:12.649Z,72.00
2019-02-25T18:25:41.378Z,73.60
2019-02-25T18:28:12.612Z,75.50
2019-02-25T18:30:40.737Z,75.70
2019-02-25T18:33:10.202Z,77.80
2019-02-25T18:35:41.212Z,77.50
2019-02-25T18:38:09.713Z,77.70
2019-02-25T18:40:40.769Z,77.80
2019-02-25T18:43:08.966Z,79.50
2019-02-25T18:45:39.854Z,80.10
2019-02-25T18:48:08.148Z,81.80
2019-02-25T18:50:39.329Z,81.40
2019-02-25T18:53:07.468Z,81.40
2019-02-25T18:55:36.501Z,82.70
2019-02-25T18:58:07.795Z,82.20
2019-02-25T19:00:40.035Z,82.80
2019-02-25T19:03:09.829Z,83.70
2019-02-25T19:05:38.571Z,83.80
2019-02-25T19:08:14.527Z,84.60
2019-02-25T19:10:45.293Z,85.40
2019-02-25T19:13:13.272Z,85.00
2019-02-25T19:15:42.940Z,85.10
2019-02-25T19:18:13.255Z,85.80
2019-02-25T19:20:43.445Z,86.60
2019-02-25T19:23:13.903Z,86.60
2019-02-25T19:25:43.456Z,86.80
2019-02-25T19:28:16.557Z,88.10
2019-02-25T19:30:42.721Z,88.80
2019-02-25T19:33:11.721Z,88.50
2019-02-25T19:35:40.970Z,88.60
2019-02-25T19:38:10.379Z,89.60
2019-02-25T19:40:40.885Z,90.00
2019-02-25T19:43:10.985Z,90.40
2019-02-25T19:45:40.930Z,90.20
2019-02-25T19:48:10.122Z,90.50
2019-02-25T19:50:50.192Z,91.10
2019-02-25T19:53:11.788Z,90.60
2019-02-25T19:55:41.017Z,91.00
2019-02-25T19:58:10.133Z,90.70
2019-02-25T20:00:38.792Z,91.00
2019-02-25T20:03:07.503Z,91.50
2019-02-25T20:05:38.746Z,91.30
2019-02-25T20:08:06.531Z,91.50
2019-02-25T20:10:35.479Z,92.00
2019-02-25T20:13:06.828Z,92.30
2019-02-25T20:15:37.593Z,91.90
2019-02-25T20:18:06.999Z,92.20
2019-02-25T20:20:36.543Z,92.10
2019-02-25T20:23:08.397Z,92.30
2019-02-25T20:25:36.619Z,92.20
2019-02-25T20:28:05.945Z,92.10
2019-02-25T20:30:34.860Z,92.10
2019-02-25T20:33:05.860Z,92.60
2019-02-25T20:35:33.800Z,92.20
2019-02-25T20:38:05.017Z,92.50
2019-02-25T20:40:33.090Z,92.50
2019-02-25T20:43:03.141Z,93.00
2019-02-25T20:45:36.575Z,92.90
2019-02-25T20:48:05.655Z,93.10
2019-02-25T20:50:34.312Z,93.00
2019-02-25T20:53:05.729Z,93.10
2019-02-25T20:55:34.527Z,93.70
2019-02-25T20:58:03.789Z,93.80
2019-02-25T21:00:34.938Z,93.60
2019-02-25T21:03:02.897Z,94.30
2019-02-25T21:05:31.620Z,94.30
2019-02-25T21:08:00.629Z,94.20
2019-02-25T21:10:32.235Z,93.90
2019-02-25T21:13:02.113Z,94.10
2019-02-25T21:15:33.313Z,94.30
2019-02-25T21:18:04.011Z,94.20
2019-02-25T21:20:31.453Z,94.70
2019-02-25T21:23:05.005Z,94.50
2019-02-25T21:25:31.453Z,94.30
2019-02-25T21:28:02.351Z,95.00
2019-02-25T21:30:31.430Z,95.30
2019-02-25T21:33:01.999Z,95.40
2019-02-25T21:35:34.703Z,95.00
2019-02-25T21:38:01.119Z,95.30
2019-02-25T21:40:30.707Z,95.40
2019-02-25T21:43:00.985Z,95.40
2019-02-25T21:45:32.360Z,95.50
2019-02-25T21:48:01.990Z,96.30
2019-02-25T21:50:34.000Z,96.10
2019-02-25T21:53:04.861Z,96.20
2019-02-25T21:55:34.465Z,96.40
2019-02-25T21:58:04.935Z,96.60
2019-02-25T22:00:35.883Z,96.80
2019-02-25T22:03:14.992Z,96.60
2019-02-25T22:05:42.917Z,96.50
2019-02-25T22:08:11.867Z,96.30
2019-02-25T22:10:42.035Z,96.50
2019-02-25T22:13:11.689Z,96.30
2019-02-25T22:15:42.908Z,96.50
2019-02-25T22:18:13.592Z,97.00
2019-02-25T22:20:42.768Z,96.90
2019-02-25T22:23:12.566Z,96.90
2019-02-25T22:25:41.164Z,96.70
2019-02-25T22:28:10.107Z,97.20
2019-02-25T22:30:38.750Z,97.00
2019-02-25T22:33:19.477Z,97.10
2019-02-25T22:35:40.597Z,97.50
2019-02-25T22:38:09.371Z,97.20
2019-02-25T22:40:38.990Z,97.20
2019-02-25T22:43:09.853Z,97.60
2019-02-25T22:45:39.703Z,97.80
2019-02-25T22:48:11.616Z,98.00
2019-02-25T22:50:39.823Z,97.80
2019-02-25T22:53:10.833Z,97.90
2019-02-25T22:55:41.797Z,98.50
2019-02-25T22:58:10.968Z,98.70
2019-02-25T23:00:44.529Z,98.50
2019-02-25T23:03:15.476Z,98.60
2019-02-25T23:05:45.992Z,98.60
2019-02-25T23:08:15.503Z,98.50
2019-02-25T23:10:47.010Z,98.90
2019-02-25T23:13:17.808Z,99.20
2019-02-25T23:15:47.212Z,99.20
2019-02-25T23:18:17.374Z,99.50
2019-02-25T23:20:47.215Z,99.70
2019-02-25T23:23:15.818Z,99.90
2019-02-25T23:25:46.881Z,99.90
2019-02-25T23:28:15.201Z,99.90
2019-02-25T23:30:43.885Z,99.90
2019-02-25T23:33:14.336Z,99.90
2019-02-25T23:35:44.708Z,99.90
2019-02-25T23:38:13.056Z,99.90
2019-02-25T23:40:42.888Z,99.90
2019-02-25T23:43:12.026Z,99.90
2019-02-25T23:45:44.233Z,99.90
2019-02-25T23:48:12.457Z,99.90
2019-02-25T23:50:41.045Z,99.90
2019-02-25T23:53:09.606Z,99.90
2019-02-25T23:55:38.209Z,99.90
2019-02-25T23:58:10.301Z,99.90
